Latest Weather Observations for Cessnock Airport

IDN60801

Issued at 6:02 pm EST Friday 28 April 2017 (issued every 30 minutes, with the page automatically refreshed every 10 minutes)

About weather observations | Map of weather stations | Latest weather observations for NSW | Other Formats
Station Details ID: 061260 Name: CESSNOCK AIRPORT AWS Lat: -32.79 Lon: 151.34 Height: 61.0 m
Data from the previous 72 hours. | See also: Recent months at Cessnock Airport
Date/Time
EST
Temp
°C
App
Temp
°C
Dew
Point
°C
Rel
Hum
%
Delta-T
°C
Wind Press
QNH
hPa
Press
MSL
hPa
Rain since
9am
mm
Dir  Spd
km/h
Gust
km/h
Spd
kts
Gust
kts
28/06:00pm 12.3 9.2 7.4 72 2.4 WSW 13 11 7 6 1020.3 1020.2 -
28/05:30pm 14.8 12.0 5.3 53 4.5 SW 9 11 5 6 1019.9 1019.8 0.0
28/05:00pm 17.3 14.4 4.6 43 6.0 SW 9 11 5 6 1019.8 1019.7 0.0
28/04:30pm 18.9 15.9 4.3 38 7.0 SSW 9 15 5 8 1019.6 1019.5 0.0
28/04:00pm 19.5 16.4 5.6 40 6.8 SW 11 15 6 8 1019.7 1019.6 0.0
28/03:30pm 19.6 16.7 6.4 42 6.6 SSW 11 20 6 11 1019.8 1019.7 0.0
28/03:00pm 19.5 16.6 4.8 38 7.1 WSW 9 15 5 8 1019.9 1019.8 0.0
28/02:30pm 19.4 15.4 5.1 39 7.0 SW 15 22 8 12 1019.8 1019.7 0.0
28/02:00pm 19.5 16.2 6.3 42 6.6 SSW 13 20 7 11 1019.9 1019.8 0.0
28/01:30pm 19.4 16.1 6.5 43 6.5 SW 13 20 7 11 1019.9 1019.8 0.0
28/01:00pm 19.4 16.9 8.4 49 5.7 SW 11 20 6 11 1020.2 1020.1 0.0
28/12:30pm 19.2 17.2 8.8 51 5.4 SSE 9 19 5 10 1020.7 1020.6 0.0
28/12:00pm 18.3 15.2 7.4 49 5.5 S 13 26 7 14 1021.2 1021.1 0.0
28/11:30am 18.0 14.7 8.0 52 5.1 SSW 15 24 8 13 1021.5 1021.4 0.0
28/11:00am 17.2 14.3 8.1 55 4.6 SW 13 20 7 11 1021.9 1021.8 0.0
28/10:30am 16.7 13.6 7.4 54 4.7 SW 13 19 7 10 1022.0 1021.9 0.0
28/10:00am 16.2 13.1 7.4 56 4.4 SW 13 20 7 11 1022.1 1022.0 0.0
28/09:30am 15.5 12.2 6.5 55 4.4 SSW 13 20 7 11 1022.2 1022.1 0.0
28/09:00am 14.7 11.2 5.5 54 4.4 SW 13 20 7 11 1022.2 1022.1 0.0
28/08:30am 14.3 11.3 5.9 57 4.0 SW 11 19 6 10 1022.1 1022.0 0.0
28/08:00am 13.6 10.1 5.3 57 3.9 SW 13 19 7 10 1021.6 1021.5 0.0
28/07:30am 12.6 10.3 5.5 62 3.3 SW 7 13 4 7 1021.3 1021.2 0.0
28/07:00am 11.9 8.3 5.1 63 3.1 SSW 13 19 7 10 1020.7 1020.6 0.0
28/06:30am 11.6 7.6 4.8 63 3.1 SSW 15 22 8 12 1020.3 1020.2 0.0
28/06:00am 11.8 7.5 5.4 65 3.0 SSW 17 20 9 11 1020.2 1020.1 0.0
28/05:30am 12.1 8.6 5.5 64 3.1 SW 13 20 7 11 1019.8 1019.7 0.0
28/05:00am 12.5 9.1 5.9 64 3.1 SW 13 19 7 10 1019.6 1019.5 0.0
28/04:30am 12.4 9.5 6.5 67 2.8 SW 11 15 6 8 1019.4 1019.3 0.0
28/04:00am 13.1 9.9 6.7 65 3.1 SW 13 20 7 11 1019.0 1018.9 0.0
28/03:30am 12.8 10.0 7.0 68 2.8 WSW 11 13 6 7 1018.8 1018.7 0.0
28/03:00am 13.2 10.8 7.0 66 3.0 WSW 9 15 5 8 1018.8 1018.7 0.0
28/02:30am 14.0 10.9 7.1 63 3.4 SSW 13 20 7 11 1018.7 1018.6 0.0
28/02:00am 14.2 11.2 7.5 64 3.3 SSW 13 19 7 10 1018.5 1018.4 0.0
28/01:30am 14.1 11.0 7.4 64 3.3 SW 13 19 7 10 1018.5 1018.4 0.0
28/01:00am 14.3 12.1 7.8 65 3.2 SSW 9 17 5 9 1018.4 1018.3 0.0
28/12:30am 12.7 11.7 8.8 77 2.0 NNW 4 13 2 7 1018.2 1018.1 0.0
28/12:00am 11.9 11.7 9.1 83 1.4 CALM 0 0 0 0 1018.2 1018.1 0.0
 
Date/Time
EST
Temp
°C
App
Temp
°C
Dew
Point
°C
Rel
Hum
%
Delta-T
°C
Wind Press
QNH
hPa
Press
MSL
hPa
Rain since
9am
mm
Dir  Spd
km/h
Gust
km/h
Spd
kts
Gust
kts
27/11:30pm 11.8 9.9 9.2 84 1.3 NNE 9 11 5 6 1018.2 1018.1 0.0
27/11:00pm 11.6 10.3 9.2 85 1.2 NNE 6 7 3 4 1018.3 1018.2 0.0
27/10:30pm 11.4 9.9 8.6 83 1.4 N 6 7 3 4 1018.3 1018.2 0.0
27/10:00pm 11.1 10.1 8.7 85 1.2 NNE 4 6 2 3 1018.1 1018.0 0.0
27/09:30pm 11.0 10.8 9.1 88 0.9 CALM 0 0 0 0 1017.8 1017.7 0.0
27/09:00pm 9.8 9.3 7.9 88 0.9 CALM 0 0 0 0 1018.1 1018.0 0.0
27/08:30pm 9.3 7.4 6.9 85 1.1 W 6 7 3 4 1018.0 1017.9 0.0
27/08:00pm 9.3 7.4 6.7 84 1.2 SW 6 7 3 4 1017.9 1017.8 0.0
27/07:30pm 8.9 6.9 6.3 84 1.2 W 6 9 3 5 1017.7 1017.6 0.0
27/07:00pm 10.3 8.2 6.8 79 1.6 WSW 7 9 4 5 1017.5 1017.4 0.0
27/06:30pm 10.3 7.1 6.8 79 1.7 WSW 13 13 7 7 1016.8 1016.7 0.0
27/06:00pm 10.9 8.0 6.6 75 2.0 WSW 11 13 6 7 1016.4 1016.3 0.0
27/05:30pm 13.4 11.1 5.8 60 3.6 WSW 7 9 4 5 1015.9 1015.8 0.0
27/05:00pm 15.9 13.0 4.9 48 5.2 SSW 9 13 5 7 1015.6 1015.5 0.0
27/04:30pm 17.9 15.1 5.2 43 6.1 SW 9 13 5 7 1015.2 1015.1 0.0
27/04:00pm 18.6 15.7 4.4 39 6.8 WSW 9 13 5 7 1014.9 1014.8 0.0
27/03:30pm 18.3 14.7 5.2 42 6.4 S 13 20 7 11 1014.7 1014.6 0.0
27/03:00pm 18.3 14.2 4.5 40 6.6 SSW 15 22 8 12 1014.6 1014.5 0.0
27/02:30pm 18.3 14.4 5.5 43 6.2 WSW 15 24 8 13 1014.3 1014.2 0.0
27/02:00pm 18.2 13.9 5.1 42 6.3 WSW 17 30 9 16 1014.2 1014.1 0.0
27/01:30pm 18.2 14.2 5.1 42 6.3 SW 15 26 8 14 1014.2 1014.1 0.0
27/01:00pm 17.8 13.5 5.1 43 6.1 SW 17 24 9 13 1014.3 1014.2 0.0
27/12:30pm 17.5 13.4 4.5 42 6.2 WSW 15 28 8 15 1014.5 1014.4 0.0
27/12:00pm 17.6 13.1 5.9 46 5.7 SW 19 28 10 15 1014.7 1014.6 0.0
27/11:30am 16.7 13.9 5.3 47 5.5 WSW 9 24 5 13 1014.8 1014.7 0.0
27/11:00am 14.9 11.8 5.7 54 4.4 WSW 11 15 6 8 1015.2 1015.1 0.0
27/10:30am 16.3 12.0 5.3 48 5.3 SW 17 24 9 13 1015.1 1015.0 0.0
27/10:00am 15.7 11.9 5.6 51 4.8 SW 15 24 8 13 1015.0 1014.9 0.0
27/09:30am 13.0 10.6 8.7 75 2.2 NW 11 17 6 9 1015.3 1015.2 0.0
27/09:00am 12.3 9.6 8.8 79 1.8 NNW 13 17 7 9 1015.2 1015.1 1.4
27/08:30am 11.9 9.5 8.6 80 1.6 NNW 11 15 6 8 1014.9 1014.8 1.4
27/08:00am 11.4 9.3 8.1 80 1.6 N 9 11 5 6 1014.6 1014.5 1.4
27/07:30am 11.1 9.5 7.8 80 1.6 WNW 6 9 3 5 1014.2 1014.1 1.4
27/07:00am 11.0 7.3 7.9 81 1.5 WNW 17 24 9 13 1013.8 1013.7 1.4
27/06:30am 10.5 6.4 7.9 84 1.3 NW 19 32 10 17 1013.5 1013.4 1.4
27/06:00am 10.3 6.6 7.9 85 1.2 NW 17 22 9 12 1013.5 1013.4 1.4
27/05:30am 10.3 6.5 7.7 84 1.3 NW 17 24 9 13 1013.0 1012.9 1.4
27/05:00am 10.0 6.2 7.6 85 1.2 NW 17 26 9 14 1012.7 1012.6 1.4
27/04:30am 9.8 6.0 7.4 85 1.1 NW 17 24 9 13 1012.2 1012.1 1.4
27/04:00am 9.8 6.3 7.4 85 1.1 NNW 15 19 8 10 1011.7 1011.6 1.4
27/03:30am 10.1 6.3 7.5 84 1.2 NNW 17 26 9 14 1011.6 1011.5 1.4
27/03:00am 10.4 7.0 7.5 82 1.4 NNW 15 22 8 12 1011.6 1011.5 1.4
27/02:30am 10.5 7.8 7.4 81 1.5 NNW 11 17 6 9 1011.9 1011.8 1.4
27/02:00am 10.8 7.8 7.5 80 1.6 NNW 13 19 7 10 1011.8 1011.7 1.4
27/01:30am 10.9 7.0 7.2 78 1.8 NNW 17 22 9 12 1011.6 1011.5 1.4
27/01:00am 11.1 7.6 7.2 77 1.9 NNW 15 22 8 12 1011.8 1011.7 1.4
27/12:30am 11.1 7.6 7.0 76 2.0 NW 15 24 8 13 1011.9 1011.8 1.4
27/12:00am 11.2 7.7 7.1 76 2.0 NW 15 22 8 12 1011.8 1011.7 1.4
 
Date/Time
EST
Temp
°C
App
Temp
°C
Dew
Point
°C
Rel
Hum
%
Delta-T
°C
Wind Press
QNH
hPa
Press
MSL
hPa
Rain since
9am
mm
Dir  Spd
km/h
Gust
km/h
Spd
kts
Gust
kts
26/11:30pm 11.2 8.2 7.5 78 1.8 NNW 13 19 7 10 1011.6 1011.5 1.4
26/11:00pm 10.9 8.2 7.4 79 1.7 NNW 11 15 6 8 1011.2 1011.1 1.4
26/10:30pm 11.3 7.8 7.4 77 1.9 NW 15 22 8 12 1011.2 1011.1 1.4
26/10:00pm 11.4 7.2 7.3 76 2.0 NNW 19 24 10 13 1011.0 1010.9 1.4
26/09:30pm 11.8 7.9 7.3 74 2.2 NW 17 24 9 13 1010.8 1010.7 1.4
26/09:00pm 11.7 7.4 7.0 73 2.3 NW 19 30 10 16 1010.2 1010.1 1.4
26/08:30pm 11.9 8.0 7.0 72 2.4 NW 17 24 9 13 1010.1 1010.0 1.4
26/08:00pm 12.4 8.1 6.9 69 2.7 NW 19 32 10 17 1009.4 1009.2 1.4
26/07:30pm 13.3 9.2 6.4 63 3.3 NW 17 28 9 15 1009.1 1008.9 1.4
26/07:00pm 13.7 10.1 6.6 62 3.4 NW 15 24 8 13 1008.4 1008.2 1.4
26/06:30pm 14.0 10.9 7.3 64 3.3 WNW 13 20 7 11 1008.3 1008.1 1.4
26/06:00pm 13.5 10.2 8.1 70 2.7 NNW 15 24 8 13 1007.7 1007.5 1.4
26/05:30pm 14.0 11.3 8.8 71 2.6 NNW 13 20 7 11 1006.8 1006.6 1.4
26/05:00pm 14.0 10.5 8.8 71 2.6 W 17 26 9 14 1006.4 1006.2 1.4
26/04:30pm 13.3 9.1 9.9 80 1.8 WSW 22 39 12 21 1005.9 1005.7 1.4
26/04:00pm 12.9 6.8 9.9 82 1.5 WSW 32 54 17 29 1005.9 1005.7 0.6
26/03:58pm 13.4 7.1 9.8 79 1.9 WSW 33 57 18 31 1005.5 1005.4 0.2
26/03:30pm 18.4 10.8 5.9 44 6.2 W 35 82 19 44 1004.3 1004.2 0.0
26/03:28pm 19.3 13.2 6.8 44 6.3 WNW 28 61 15 33 1004.2 1004.1 0.0
26/03:00pm 21.4 17.3 8.7 44 6.8 NW 20 33 11 18 1002.9 1002.8 0.0
26/02:50pm 20.8 14.5 9.1 47 6.2 NW 32 50 17 27 1002.8 1002.7 0.0
26/02:30pm 22.4 17.1 7.0 37 7.9 WNW 24 39 13 21 1002.4 1002.3 0.0
26/02:00pm 23.8 17.8 7.0 34 8.8 WNW 28 46 15 25 1002.1 1002.0 0.0
26/01:57pm 23.6 17.5 6.8 34 8.7 WNW 28 46 15 25 1002.2 1002.1 0.0
26/01:30pm 23.8 19.8 9.0 39 8.0 NW 20 30 11 16 1002.4 1002.3 0.0
26/01:00pm 23.8 19.6 9.8 41 7.7 WNW 22 35 12 19 1002.9 1002.8 0.0
26/12:41pm 23.4 18.0 9.4 41 7.6 NW 28 46 15 25 1003.2 1003.1 0.0
26/12:30pm 24.2 21.0 11.9 46 7.0 NW 20 33 11 18 1003.4 1003.3 0.0
26/12:00pm 23.8 21.3 12.4 48 6.6 NW 17 28 9 15 1004.2 1004.1 0.0
26/11:30am 23.3 19.8 12.3 50 6.3 NW 22 35 12 19 1004.9 1004.8 0.0
26/11:00am 22.5 20.3 13.3 56 5.3 NW 17 30 9 16 1005.4 1005.3 0.0
26/10:30am 22.0 20.1 14.1 61 4.6 NW 17 28 9 15 1006.4 1006.2 0.0
26/10:00am 21.0 20.3 15.5 71 3.3 NNW 13 20 7 11 1006.7 1006.5 0.0
26/09:30am 19.9 19.5 16.2 79 2.2 NW 13 20 7 11 1007.3 1007.1 0.0
26/09:00am 18.5 18.0 15.9 85 1.5 NNW 13 19 7 10 1007.7 1007.5 6.0
26/08:30am 18.0 17.9 16.0 88 1.2 NW 11 20 6 11 1007.9 1007.7 6.0
26/08:00am 18.0 17.8 15.8 87 1.3 NNW 11 17 6 9 1007.7 1007.5 6.0
26/07:30am 17.9 17.7 15.7 87 1.3 NW 11 15 6 8 1007.8 1007.6 6.0
26/07:00am 17.2 16.5 15.5 90 1.0 NNW 13 20 7 11 1007.7 1007.5 6.0
26/06:30am 16.5 16.5 15.2 92 0.8 NNW 9 15 5 8 1007.5 1007.3 6.0
26/06:00am 16.4 15.9 14.9 91 0.9 NW 11 15 6 8 1007.6 1007.4 6.0
26/05:30am 16.6 16.6 15.1 91 0.9 NNW 9 15 5 8 1007.6 1007.4 6.0
26/05:00am 17.2 16.1 15.4 89 1.1 NNW 15 20 8 11 1007.7 1007.5 6.0
26/04:30am 17.1 16.7 15.3 89 1.1 NNW 11 13 6 7 1007.6 1007.4 6.0
26/04:00am 17.3 16.6 15.5 89 1.1 NNW 13 17 7 9 1007.3 1007.1 6.0
26/03:30am 17.8 17.3 15.8 88 1.2 NNW 13 20 7 11 1007.4 1007.2 6.0
26/03:00am 17.9 18.2 16.1 89 1.1 NNW 9 15 5 8 1007.6 1007.4 6.0
26/02:30am 18.0 18.1 16.5 91 0.9 NNW 11 15 6 8 1007.9 1007.7 6.0
26/02:00am 18.8 18.6 16.6 87 1.3 NNW 13 20 7 11 1008.3 1008.1 6.0
26/01:30am 18.4 18.7 16.9 91 0.9 NNW 11 17 6 9 1008.5 1008.3 6.0
26/01:00am 18.5 18.8 17.0 91 0.9 NNW 11 15 6 8 1008.8 1008.6 6.0
26/12:30am 18.7 18.6 17.0 90 1.0 NNW 13 19 7 10 1008.8 1008.6 6.0
26/12:00am 19.0 19.7 17.1 89 1.2 NW 9 15 5 8 1009.2 1009.0 6.0
 
Date/Time
EST
Temp
°C
App
Temp
°C
Dew
Point
°C
Rel
Hum
%
Delta-T
°C
Wind Press
QNH
hPa
Press
MSL
hPa
Rain since
9am
mm
Dir  Spd
km/h
Gust
km/h
Spd
kts
Gust
kts
25/11:30pm 18.7 19.5 17.2 91 0.9 NW 9 15 5 8 1009.5 1009.3 6.0
25/11:00pm 17.9 19.2 17.1 95 0.5 W 6 9 3 5 1009.3 1009.1 6.0
25/10:30pm 17.8 18.9 17.0 95 0.5 NNW 7 11 4 6 1009.3 1009.1 6.0
25/10:00pm 18.2 19.6 17.4 95 0.5 N 6 9 3 5 1009.6 1009.4 6.0
25/09:30pm 18.2 19.7 17.6 96 0.4 N 6 11 3 6 1010.0 1009.8 6.0
25/09:00pm 18.2 19.1 17.6 96 0.4 N 9 13 5 7 1010.1 1010.0 6.0
25/08:30pm 18.1 19.3 17.3 95 0.5 WNW 7 9 4 5 1010.6 1010.5 6.0
25/08:00pm 18.2 19.6 17.4 95 0.5 NW 6 9 3 5 1010.4 1010.3 5.8
25/07:30pm 18.2 19.4 17.4 95 0.5 NNW 7 11 4 6 1010.4 1010.3 5.6
25/07:00pm 18.3 19.8 17.5 95 0.5 NW 6 11 3 6 1010.4 1010.3 5.6
25/06:30pm 18.5 19.9 17.7 95 0.5 NNW 7 9 4 5 1010.2 1010.1 5.4

Other Formats:

Comma delimited format used in spreadsheet applications
http://www.bom.gov.au/fwo/IDN60801/IDN60801.95771.axf

JavaScript Object Notation format (JSON) in row-major order
http://www.bom.gov.au/fwo/IDN60801/IDN60801.95771.json